createdAt,value
2022-08-10T00:01:31.118Z,17.50
2022-08-10T00:04:21.437Z,17.30
2022-08-10T00:07:10.499Z,17.20
2022-08-10T00:10:00.030Z,17.20
2022-08-10T00:12:53.464Z,17.20
2022-08-10T00:15:52.965Z,17.10
2022-08-10T00:18:42.803Z,17.10
2022-08-10T00:21:30.997Z,17.10
2022-08-10T00:24:19.184Z,17.10
2022-08-10T00:27:58.906Z,17.00
2022-08-10T00:30:16.877Z,17.00
2022-08-10T00:33:05.224Z,17.00
2022-08-10T00:35:53.442Z,16.90
2022-08-10T00:38:42.367Z,16.90
2022-08-10T00:41:30.529Z,16.90
2022-08-10T00:44:20.029Z,16.90
2022-08-10T00:47:35.673Z,16.90
2022-08-10T00:50:19.023Z,16.90
2022-08-10T00:53:08.094Z,16.90
2022-08-10T00:56:39.784Z,16.90
2022-08-10T00:59:05.195Z,16.80
2022-08-10T01:02:08.883Z,16.80
2022-08-10T01:05:02.288Z,16.80
2022-08-10T01:08:16.087Z,16.70
2022-08-10T01:12:47.340Z,16.70
2022-08-10T01:14:25.886Z,16.70
2022-08-10T01:17:22.922Z,16.70
2022-08-10T01:20:38.181Z,16.60
2022-08-10T01:23:46.398Z,16.50
2022-08-10T01:26:57.583Z,16.50
2022-08-10T01:30:01.900Z,16.40
2022-08-10T01:32:54.798Z,16.30
2022-08-10T01:35:53.077Z,16.20
2022-08-10T01:38:45.829Z,16.20
2022-08-10T01:41:46.961Z,16.10
2022-08-10T01:44:39.787Z,16.10
2022-08-10T01:47:52.640Z,16.00
2022-08-10T01:50:59.814Z,16.00
2022-08-10T01:53:53.030Z,16.00
2022-08-10T01:56:44.675Z,16.00
2022-08-10T01:59:35.366Z,16.00
2022-08-10T02:02:24.499Z,16.00
2022-08-10T02:05:16.838Z,15.90
2022-08-10T02:08:08.796Z,15.90
2022-08-10T02:10:58.608Z,15.90
2022-08-10T02:13:48.698Z,15.90
2022-08-10T02:16:40.329Z,15.90
2022-08-10T02:19:30.966Z,15.80
2022-08-10T02:22:36.276Z,15.80
2022-08-10T02:25:42.041Z,15.80
2022-08-10T02:28:34.111Z,15.80
2022-08-10T02:31:24.783Z,15.80
2022-08-10T02:34:17.386Z,15.80
2022-08-10T02:37:10.867Z,15.70
2022-08-10T02:40:01.222Z,15.70
2022-08-10T02:45:20.718Z,15.70
2022-08-10T02:46:10.186Z,15.60
2022-08-10T02:49:03.551Z,15.60
2022-08-10T02:52:07.290Z,15.60
2022-08-10T02:55:17.123Z,15.50
2022-08-10T02:58:13.474Z,15.50
2022-08-10T03:01:10.549Z,15.50
2022-08-10T03:04:01.989Z,15.50
2022-08-10T03:06:56.601Z,15.40
2022-08-10T03:09:48.505Z,15.40
2022-08-10T03:12:40.096Z,15.30
2022-08-10T03:15:30.105Z,15.30
2022-08-10T03:18:21.034Z,15.30
2022-08-10T03:21:12.023Z,15.30
2022-08-10T03:24:02.781Z,15.30
2022-08-10T03:27:13.099Z,15.20
2022-08-10T03:30:29.800Z,15.20
2022-08-10T03:33:12.414Z,15.20
2022-08-10T03:36:42.401Z,15.20
2022-08-10T03:39:09.468Z,15.10
2022-08-10T03:42:01.636Z,15.10
2022-08-10T03:44:51.141Z,15.00
2022-08-10T03:47:43.921Z,15.00
2022-08-10T03:50:51.342Z,15.00
2022-08-10T03:54:03.661Z,15.00
2022-08-10T03:56:49.908Z,14.90
2022-08-10T03:59:38.995Z,14.80
2022-08-10T04:02:46.822Z,14.80
2022-08-10T04:05:39.133Z,14.80
2022-08-10T04:08:27.621Z,14.80
2022-08-10T04:11:15.812Z,14.80
2022-08-10T04:14:04.137Z,14.80
2022-08-10T04:16:52.525Z,14.80
2022-08-10T04:19:45.826Z,14.80
2022-08-10T04:22:37.326Z,14.80
2022-08-10T04:25:26.830Z,14.90
2022-08-10T04:28:15.542Z,14.90
2022-08-10T04:31:07.375Z,14.90
2022-08-10T04:33:57.097Z,15.00
2022-08-10T04:36:45.817Z,15.10
2022-08-10T04:39:35.739Z,15.20
2022-08-10T04:42:24.180Z,15.30
2022-08-10T04:45:15.037Z,15.40
2022-08-10T04:48:03.600Z,15.40
2022-08-10T04:50:52.057Z,15.50
2022-08-10T04:54:03.317Z,15.50
2022-08-10T04:56:50.096Z,15.40
2022-08-10T04:59:38.355Z,15.50
2022-08-10T05:02:31.006Z,15.50
2022-08-10T05:05:20.254Z,15.60
2022-08-10T05:08:08.437Z,15.70
2022-08-10T05:10:56.608Z,15.70
2022-08-10T05:13:46.744Z,15.70
2022-08-10T05:16:36.154Z,15.80
2022-08-10T05:20:03.521Z,15.90
2022-08-10T05:22:32.850Z,15.90
2022-08-10T05:25:21.493Z,16.00
2022-08-10T05:28:09.710Z,16.10
2022-08-10T05:30:59.444Z,16.20
2022-08-10T05:33:47.867Z,16.30
2022-08-10T05:36:36.598Z,16.30
2022-08-10T05:39:31.826Z,16.40
2022-08-10T05:42:21.714Z,16.50
2022-08-10T05:45:20.032Z,16.60
2022-08-10T05:48:54.460Z,16.70
2022-08-10T05:51:19.643Z,16.70
2022-08-10T05:54:15.537Z,16.80
2022-08-10T05:57:03.852Z,16.90
2022-08-10T06:00:33.270Z,17.00
2022-08-10T06:03:11.256Z,17.10
2022-08-10T06:06:01.805Z,17.20
2022-08-10T06:08:51.602Z,17.30
2022-08-10T06:12:24.102Z,17.40
2022-08-10T06:15:05.045Z,17.40
2022-08-10T06:18:01.569Z,17.50
2022-08-10T06:20:52.554Z,17.60
2022-08-10T06:23:42.384Z,17.70
2022-08-10T06:26:30.596Z,17.70
2022-08-10T06:29:20.932Z,17.80
2022-08-10T06:32:10.914Z,17.90
2022-08-10T06:35:01.475Z,18.00
2022-08-10T06:37:52.585Z,18.10
2022-08-10T06:40:44.680Z,18.20
2022-08-10T06:43:36.286Z,18.30
2022-08-10T06:46:25.374Z,18.30
2022-08-10T06:49:17.094Z,18.40
2022-08-10T06:52:07.738Z,18.50
2022-08-10T06:55:05.253Z,18.60
2022-08-10T06:58:00.118Z,18.70
2022-08-10T07:00:51.060Z,18.80
2022-08-10T07:03:47.220Z,19.00
2022-08-10T07:06:37.210Z,19.10
2022-08-10T07:09:27.232Z,19.30
2022-08-10T07:12:18.309Z,19.40
2022-08-10T07:15:09.735Z,19.50
2022-08-10T07:18:00.058Z,19.50
2022-08-10T07:20:49.045Z,19.60
2022-08-10T07:23:57.527Z,19.70
2022-08-10T07:26:51.563Z,19.80
2022-08-10T07:29:53.212Z,19.90
2022-08-10T07:32:45.302Z,20.00
2022-08-10T07:35:42.772Z,20.00
2022-08-10T07:38:51.455Z,20.10
2022-08-10T07:42:31.210Z,20.20
2022-08-10T07:45:32.510Z,20.30
2022-08-10T07:48:28.595Z,20.50
2022-08-10T07:51:20.325Z,20.60
2022-08-10T07:54:15.750Z,20.70
2022-08-10T07:57:08.173Z,20.80
2022-08-10T07:59:58.782Z,21.00
2022-08-10T08:02:52.048Z,21.10
2022-08-10T08:06:02.962Z,21.20
2022-08-10T08:08:50.628Z,21.40
2022-08-10T08:11:39.858Z,21.50
2022-08-10T08:14:28.623Z,21.60
2022-08-10T08:17:17.744Z,21.70
2022-08-10T08:20:10.539Z,21.80
2022-08-10T08:24:08.954Z,21.90
2022-08-10T08:26:10.839Z,22.10
2022-08-10T08:29:00.782Z,22.10
2022-08-10T08:32:02.488Z,22.20
2022-08-10T08:34:55.369Z,22.30
2022-08-10T08:38:29.732Z,22.50
2022-08-10T08:41:02.925Z,22.60
2022-08-10T08:44:03.495Z,22.70
2022-08-10T08:48:02.417Z,22.90
2022-08-10T08:50:32.401Z,23.00
2022-08-10T08:54:01.741Z,23.10
2022-08-10T08:56:59.849Z,23.30
2022-08-10T09:00:01.113Z,23.40
2022-08-10T09:03:09.182Z,23.50
2022-08-10T09:06:09.265Z,23.70
2022-08-10T09:09:33.475Z,23.80
2022-08-10T09:12:35.326Z,23.90
2022-08-10T09:15:39.786Z,24.10
2022-08-10T09:18:40.077Z,24.20
2022-08-10T09:21:55.086Z,24.30
2022-08-10T09:24:52.979Z,24.40
2022-08-10T09:27:49.330Z,24.50
2022-08-10T09:31:10.878Z,24.50
2022-08-10T09:36:23.353Z,24.60
2022-08-10T09:37:18.924Z,24.70
2022-08-10T09:41:00.537Z,24.80
2022-08-10T09:43:32.016Z,24.90
2022-08-10T09:46:34.629Z,25.00
2022-08-10T09:49:53.835Z,25.10
2022-08-10T09:52:58.814Z,25.30
2022-08-10T09:56:18.508Z,25.40
2022-08-10T09:59:59.524Z,25.60
2022-08-10T10:02:28.889Z,25.70
2022-08-10T10:05:29.502Z,25.90
2022-08-10T10:08:25.372Z,26.00
2022-08-10T10:11:20.729Z,26.10
2022-08-10T10:14:17.113Z,26.20
2022-08-10T10:17:13.478Z,26.30
2022-08-10T10:20:10.414Z,26.30
2022-08-10T10:23:11.452Z,26.50
2022-08-10T10:26:15.929Z,26.50
2022-08-10T10:29:55.642Z,26.50
2022-08-10T10:32:36.824Z,26.60
2022-08-10T10:35:31.262Z,26.70
2022-08-10T10:38:22.294Z,26.70
2022-08-10T10:41:25.697Z,26.70
2022-08-10T10:44:27.435Z,26.80
2022-08-10T10:47:33.625Z,27.00
2022-08-10T10:50:30.035Z,27.00
2022-08-10T10:53:28.283Z,27.00
2022-08-10T10:56:24.562Z,27.00
2022-08-10T10:59:53.891Z,27.20
2022-08-10T11:02:47.299Z,27.20
2022-08-10T11:05:44.020Z,27.30
2022-08-10T11:08:37.983Z,27.30
2022-08-10T11:12:00.687Z,27.50
2022-08-10T11:14:49.558Z,27.60
2022-08-10T11:17:47.060Z,27.70
2022-08-10T11:20:43.267Z,28.00
2022-08-10T11:23:40.350Z,28.20
2022-08-10T11:26:36.067Z,28.20
2022-08-10T11:29:33.183Z,28.20
2022-08-10T11:32:26.951Z,28.40
2022-08-10T11:35:23.279Z,28.50
2022-08-10T11:38:31.162Z,28.60
2022-08-10T11:42:08.736Z,28.70
2022-08-10T11:44:55.464Z,28.80
2022-08-10T11:47:49.190Z,28.80
2022-08-10T11:50:44.443Z,28.90
2022-08-10T11:53:39.476Z,29.00
2022-08-10T11:56:38.417Z,29.00
2022-08-10T11:59:59.518Z,29.10
2022-08-10T12:02:53.587Z,29.10
2022-08-10T12:05:53.855Z,29.20
2022-08-10T12:10:03.803Z,29.20
2022-08-10T12:11:53.771Z,29.30
2022-08-10T12:14:50.731Z,29.20
2022-08-10T12:17:50.724Z,29.20
2022-08-10T12:20:44.308Z,29.40
2022-08-10T12:23:39.512Z,29.50
2022-08-10T12:26:34.013Z,29.70
2022-08-10T12:29:28.781Z,29.80
2022-08-10T12:32:25.700Z,29.80
2022-08-10T12:35:23.730Z,29.90
2022-08-10T12:38:23.795Z,30.00
2022-08-10T12:41:43.497Z,30.20
2022-08-10T12:44:42.392Z,30.40
2022-08-10T12:47:40.475Z,30.40
2022-08-10T12:50:38.120Z,30.40
2022-08-10T12:53:41.287Z,30.60
2022-08-10T12:56:36.797Z,30.70
2022-08-10T13:03:04.192Z,30.70
2022-08-10T13:06:12.669Z,30.70
2022-08-10T13:09:17.333Z,30.50
2022-08-10T13:13:21.619Z,30.80
2022-08-10T13:16:23.702Z,31.20
2022-08-10T13:19:54.490Z,31.40
2022-08-10T13:22:48.152Z,31.40
2022-08-10T13:25:51.825Z,31.30
2022-08-10T13:28:47.399Z,31.40
2022-08-10T13:32:09.914Z,31.50
2022-08-10T13:34:54.271Z,31.70
2022-08-10T13:37:43.849Z,31.80
2022-08-10T13:40:33.874Z,31.90
2022-08-10T13:43:25.052Z,31.80
2022-08-10T13:46:24.110Z,31.90
2022-08-10T13:49:17.513Z,32.10
2022-08-10T13:52:24.620Z,32.40
2022-08-10T13:55:26.173Z,32.70
2022-08-10T13:58:38.581Z,33.00
2022-08-10T14:01:31.522Z,33.10
2022-08-10T14:04:22.564Z,33.20
2022-08-10T14:07:14.316Z,33.30
2022-08-10T14:10:07.833Z,33.20
2022-08-10T14:13:07.444Z,33.30
2022-08-10T14:16:01.128Z,33.50
2022-08-10T14:18:55.772Z,33.60
2022-08-10T14:21:44.525Z,33.80
2022-08-10T14:24:34.166Z,34.00
2022-08-10T14:27:23.986Z,34.10
2022-08-10T14:30:17.721Z,34.20
2022-08-10T14:33:08.651Z,34.50
2022-08-10T15:19:01.906Z,35.10
2022-08-10T15:22:35.746Z,35.30
2022-08-10T15:25:28.711Z,35.20
2022-08-10T15:28:19.947Z,35.20
2022-08-10T15:31:08.888Z,35.20
2022-08-10T15:34:17.305Z,35.30
2022-08-10T15:37:36.930Z,35.50
2022-08-10T15:40:31.144Z,35.70
2022-08-10T15:43:25.896Z,36.20
2022-08-10T15:46:20.290Z,36.60
2022-08-10T15:49:19.181Z,36.50
2022-08-10T15:52:12.810Z,36.50
2022-08-10T15:55:41.223Z,36.50
2022-08-10T15:58:39.586Z,36.60
2022-08-10T16:02:12.603Z,36.70
2022-08-10T16:04:51.108Z,37.00
2022-08-10T16:07:46.013Z,37.10
2022-08-10T16:10:45.085Z,37.10
2022-08-10T16:13:59.855Z,37.00
2022-08-10T16:16:56.695Z,37.10
2022-08-10T16:19:51.846Z,37.30
2022-08-10T16:22:40.472Z,37.40
2022-08-10T16:25:48.123Z,37.30
2022-08-10T16:28:44.310Z,37.20
2022-08-10T16:31:36.705Z,37.40
2022-08-10T16:34:26.899Z,37.70
2022-08-10T16:37:16.790Z,37.70
2022-08-10T16:40:07.324Z,38.10
2022-08-10T16:42:57.281Z,38.30
2022-08-10T16:45:50.872Z,38.40
2022-08-10T16:48:49.975Z,38.40
2022-08-10T16:51:40.512Z,38.60
2022-08-10T16:54:30.269Z,38.70
2022-08-10T16:57:20.515Z,38.70
2022-08-10T17:00:11.264Z,38.50
2022-08-10T17:03:22.492Z,38.40
2022-08-10T17:06:19.930Z,38.40
2022-08-10T17:09:15.695Z,38.40
2022-08-10T17:12:10.462Z,38.50
2022-08-10T17:15:10.481Z,38.40
2022-08-10T17:18:05.044Z,38.40
2022-08-10T17:20:53.338Z,38.20
2022-08-10T17:23:46.887Z,37.90
2022-08-10T17:26:38.317Z,37.80
2022-08-10T17:29:57.435Z,37.50
2022-08-10T17:32:44.834Z,37.40
2022-08-10T17:35:36.944Z,36.80
2022-08-10T17:38:30.056Z,36.40
2022-08-10T17:41:24.722Z,36.20
2022-08-10T17:44:14.065Z,35.90
2022-08-10T17:47:11.051Z,35.90
2022-08-10T17:50:01.847Z,35.50
2022-08-10T17:52:52.735Z,34.60
2022-08-10T17:55:45.469Z,33.90
2022-08-10T17:58:35.101Z,33.10
2022-08-10T18:01:40.738Z,32.50
2022-08-10T18:04:40.880Z,31.80
2022-08-10T18:07:35.366Z,31.00
2022-08-10T18:10:25.559Z,30.30
2022-08-10T18:13:18.562Z,29.70
2022-08-10T18:16:08.568Z,29.30
2022-08-10T18:19:00.048Z,28.90
2022-08-10T18:21:50.382Z,28.60
2022-08-10T18:24:39.633Z,28.30
2022-08-10T18:28:00.684Z,28.10
2022-08-10T18:30:48.098Z,27.80
2022-08-10T18:33:42.922Z,27.60
2022-08-10T18:36:32.817Z,27.40
2022-08-10T18:39:25.732Z,27.20
2022-08-10T18:42:19.292Z,27.00
2022-08-10T18:45:12.412Z,26.90
2022-08-10T18:48:07.237Z,26.70
2022-08-10T18:50:59.329Z,26.60
2022-08-10T18:53:54.977Z,26.40
2022-08-10T18:56:57.705Z,26.30
2022-08-10T19:00:09.146Z,26.10
2022-08-10T19:03:21.626Z,26.00
2022-08-10T19:06:32.079Z,25.80
2022-08-10T19:09:45.898Z,25.60
2022-08-10T19:12:45.589Z,25.60
2022-08-10T19:15:43.508Z,25.40
2022-08-10T19:18:38.925Z,25.30
2022-08-10T19:21:32.985Z,25.20
2022-08-10T19:24:28.569Z,25.10
2022-08-10T19:27:30.745Z,25.00
2022-08-10T19:30:20.319Z,24.90
2022-08-10T19:33:20.909Z,24.70
2022-08-10T19:36:17.963Z,24.60
2022-08-10T19:39:17.958Z,24.50
2022-08-10T19:42:12.155Z,24.30
2022-08-10T19:45:11.711Z,24.10
2022-08-10T19:48:27.309Z,24.00
2022-08-10T19:51:23.924Z,23.90
2022-08-10T19:54:18.291Z,23.70
2022-08-10T19:57:13.791Z,23.50
2022-08-10T20:00:19.040Z,23.40
2022-08-10T20:03:20.539Z,23.30
2022-08-10T20:06:19.006Z,23.10
2022-08-10T20:09:15.810Z,22.90
2022-08-10T20:12:07.669Z,22.80
2022-08-10T20:15:04.653Z,22.70
2022-08-10T20:17:58.099Z,22.60
2022-08-10T20:20:52.623Z,22.50
2022-08-10T20:23:53.896Z,22.40
2022-08-10T20:26:50.041Z,22.30
2022-08-10T20:29:57.793Z,22.20
2022-08-10T20:32:51.841Z,22.10
2022-08-10T20:35:50.404Z,22.00
2022-08-10T20:38:45.193Z,21.90
2022-08-10T20:41:46.569Z,21.80
2022-08-10T20:44:50.853Z,21.70
2022-08-10T20:47:54.502Z,21.60
2022-08-10T20:50:46.938Z,21.50
2022-08-10T20:53:43.636Z,21.50
2022-08-10T20:56:48.223Z,21.50
2022-08-10T21:00:02.544Z,21.30
2022-08-10T21:03:15.737Z,21.30
2022-08-10T21:06:42.145Z,21.20
2022-08-10T21:09:49.874Z,21.10
2022-08-10T21:12:55.388Z,21.00
2022-08-10T21:16:01.840Z,20.90
2022-08-10T21:19:03.852Z,20.80
2022-08-10T21:22:10.859Z,20.80
2022-08-10T21:25:02.449Z,20.70
2022-08-10T21:28:06.571Z,20.50
2022-08-10T21:31:16.487Z,20.40
2022-08-10T21:34:19.073Z,20.30
2022-08-10T21:37:17.948Z,20.20
2022-08-10T21:40:32.133Z,20.10
2022-08-10T21:43:59.027Z,20.10
2022-08-10T21:47:39.490Z,20.00
2022-08-10T21:50:58.008Z,19.90
2022-08-10T21:54:11.596Z,19.90
2022-08-10T21:57:25.551Z,19.70
2022-08-10T22:00:33.666Z,19.70
2022-08-10T22:03:41.267Z,19.60
2022-08-10T22:06:52.482Z,19.50
2022-08-10T22:10:04.964Z,19.50
2022-08-10T22:13:12.463Z,19.40
2022-08-10T22:16:20.741Z,19.40
2022-08-10T22:19:30.725Z,19.40
2022-08-10T22:22:45.368Z,19.40
2022-08-10T22:26:12.662Z,19.30
2022-08-10T22:29:23.976Z,19.30
2022-08-10T22:32:37.532Z,19.20
2022-08-10T22:36:08.857Z,19.20
2022-08-10T22:40:07.770Z,19.20
2022-08-10T22:43:10.286Z,19.20
2022-08-10T22:46:21.629Z,19.20
2022-08-10T22:49:09.362Z,19.10
2022-08-10T22:52:03.947Z,19.00
2022-08-10T22:55:15.954Z,19.00
2022-08-10T22:58:22.270Z,18.90
2022-08-10T23:01:35.831Z,18.90
2022-08-10T23:04:29.361Z,18.90
2022-08-10T23:07:29.033Z,18.80
2022-08-10T23:10:21.183Z,18.70
2022-08-10T23:13:13.633Z,18.70
2022-08-10T23:16:39.019Z,18.60
2022-08-10T23:19:29.326Z,18.50
2022-08-10T23:22:20.294Z,18.50
2022-08-10T23:25:13.213Z,18.50
2022-08-10T23:28:11.475Z,18.50
2022-08-10T23:31:01.705Z,18.40
2022-08-10T23:33:54.744Z,18.40
2022-08-10T23:36:43.906Z,18.40
2022-08-10T23:39:34.784Z,18.30
2022-08-10T23:42:26.717Z,18.20
2022-08-10T23:45:18.046Z,18.20
2022-08-10T23:48:07.252Z,18.20
2022-08-10T23:50:59.770Z,18.20
2022-08-10T23:53:49.917Z,18.10
2022-08-10T23:56:42.253Z,18.00
2022-08-10T23:59:33.110Z,18.00
